createdAt,value
2018-04-17T00:00:35.179Z,19.84
2018-04-17T00:03:01.574Z,19.85
2018-04-17T00:05:27.795Z,19.85
2018-04-17T00:07:54.381Z,19.84
2018-04-17T00:10:20.684Z,19.82
2018-04-17T00:12:46.857Z,19.80
2018-04-17T00:15:13.274Z,19.81
2018-04-17T00:17:39.518Z,19.80
2018-04-17T00:20:05.753Z,19.78
2018-04-17T00:22:32.162Z,19.77
2018-04-17T00:24:58.393Z,19.76
2018-04-17T00:27:24.628Z,19.71
2018-04-17T00:29:50.975Z,19.70
2018-04-17T00:32:17.221Z,19.72
2018-04-17T00:34:43.537Z,19.68
2018-04-17T00:37:09.723Z,19.71
2018-04-17T00:39:35.966Z,19.71
2018-04-17T00:42:02.498Z,19.69
2018-04-17T00:44:29.195Z,19.68
2018-04-17T00:46:55.405Z,19.69
2018-04-17T00:49:21.640Z,19.69
2018-04-17T00:51:48.106Z,19.67
2018-04-17T00:54:14.387Z,19.66
2018-04-17T00:56:41.097Z,19.64
2018-04-17T00:59:07.293Z,19.64
2018-04-17T01:01:33.474Z,19.63
2018-04-17T01:03:59.955Z,19.58
2018-04-17T01:06:26.161Z,19.61
2018-04-17T01:08:52.367Z,19.59
2018-04-17T01:11:18.605Z,19.60
2018-04-17T01:13:44.900Z,19.64
2018-04-17T01:16:11.125Z,19.67
2018-04-17T01:18:37.354Z,19.68
2018-04-17T01:21:03.601Z,19.67
2018-04-17T01:23:29.781Z,19.68
2018-04-17T01:25:55.962Z,19.67
2018-04-17T01:28:22.196Z,19.63
2018-04-17T01:30:48.445Z,19.61
2018-04-17T01:33:15.045Z,19.61
2018-04-17T01:35:41.286Z,19.61
2018-04-17T01:38:07.515Z,19.61
2018-04-17T01:40:34.024Z,19.62
2018-04-17T01:43:00.270Z,19.63
2018-04-17T01:45:26.785Z,19.64
2018-04-17T01:47:53.059Z,19.65
2018-04-17T01:50:19.440Z,19.64
2018-04-17T01:52:45.675Z,19.65
2018-04-17T01:55:11.832Z,19.61
2018-04-17T01:57:38.052Z,19.57
2018-04-17T02:00:04.300Z,19.54
2018-04-17T02:02:30.578Z,19.52
2018-04-17T02:04:56.753Z,19.50
2018-04-17T02:07:23.023Z,19.48
2018-04-17T02:09:49.274Z,19.47
2018-04-17T02:12:15.505Z,19.45
2018-04-17T02:14:42.106Z,19.45
2018-04-17T02:17:08.376Z,19.46
2018-04-17T02:19:34.924Z,19.45
2018-04-17T02:22:01.827Z,19.43
2018-04-17T02:24:28.055Z,19.42
2018-04-17T02:26:54.221Z,19.42
2018-04-17T02:29:21.150Z,19.41
2018-04-17T02:31:48.284Z,19.41
2018-04-17T02:34:14.457Z,19.40
2018-04-17T02:36:40.653Z,19.37
2018-04-17T02:39:06.983Z,19.38
2018-04-17T02:41:33.176Z,19.40
2018-04-17T02:43:59.461Z,19.41
2018-04-17T02:46:25.990Z,19.38
2018-04-17T02:48:52.170Z,19.37
2018-04-17T02:51:18.382Z,19.35
2018-04-17T02:53:44.881Z,19.37
2018-04-17T02:56:11.402Z,19.37
2018-04-17T02:58:37.718Z,19.38
2018-04-17T03:01:03.891Z,19.39
2018-04-17T03:03:30.129Z,19.39
2018-04-17T03:05:56.721Z,19.37
2018-04-17T03:08:23.000Z,19.36
2018-04-17T03:10:49.210Z,19.36
2018-04-17T03:13:15.434Z,19.37
2018-04-17T03:15:41.671Z,19.35
2018-04-17T03:18:07.925Z,19.34
2018-04-17T03:20:34.466Z,19.35
2018-04-17T03:23:00.703Z,19.33
2018-04-17T03:25:26.885Z,19.33
2018-04-17T03:27:53.448Z,19.34
2018-04-17T03:30:19.712Z,19.38
2018-04-17T03:32:45.968Z,19.40
2018-04-17T03:35:12.259Z,19.42
2018-04-17T03:37:38.437Z,19.44
2018-04-17T03:40:04.610Z,19.44
2018-04-17T03:42:30.832Z,19.42
2018-04-17T03:44:57.107Z,19.38
2018-04-17T03:47:23.342Z,19.37
2018-04-17T03:49:50.014Z,19.37
2018-04-17T03:52:16.258Z,19.36
2018-04-17T03:54:42.450Z,19.38
2018-04-17T03:57:08.653Z,19.39
2018-04-17T03:59:34.978Z,19.39
2018-04-17T04:02:01.196Z,19.40
2018-04-17T04:04:27.391Z,19.42
2018-04-17T04:06:53.680Z,19.45
2018-04-17T04:09:19.845Z,19.46
2018-04-17T04:11:46.179Z,19.46
2018-04-17T04:14:12.421Z,19.46
2018-04-17T04:16:51.213Z,19.46
2018-04-17T04:19:29.763Z,19.46
2018-04-17T04:22:08.354Z,19.46
2018-04-17T04:24:46.712Z,19.46
2018-04-17T04:27:13.573Z,19.47
2018-04-17T04:29:39.805Z,19.48
2018-04-17T04:32:06.024Z,19.50
2018-04-17T04:34:32.320Z,19.51
2018-04-17T04:36:58.768Z,19.52
2018-04-17T04:39:25.058Z,19.54
2018-04-17T04:41:51.370Z,19.54
2018-04-17T04:44:17.973Z,19.57
2018-04-17T04:46:44.165Z,19.56
2018-04-17T04:49:10.418Z,19.52
2018-04-17T04:51:36.710Z,19.46
2018-04-17T04:54:02.885Z,19.42
2018-04-17T04:56:29.223Z,19.40
2018-04-17T04:58:55.400Z,19.40
2018-04-17T05:01:21.581Z,19.39
2018-04-17T05:03:47.855Z,19.39
2018-04-17T05:06:14.098Z,19.39
2018-04-17T05:08:40.761Z,19.44
2018-04-17T05:11:07.036Z,19.46
2018-04-17T05:13:33.228Z,19.51
2018-04-17T05:15:59.457Z,19.56
2018-04-17T05:18:25.696Z,19.60
2018-04-17T05:20:52.029Z,19.64
2018-04-17T05:23:18.384Z,19.65
2018-04-17T05:25:44.559Z,19.68
2018-04-17T05:28:10.756Z,19.72
2018-04-17T05:30:37.380Z,19.72
2018-04-17T05:33:03.861Z,19.75
2018-04-17T05:35:30.057Z,19.78
2018-04-17T05:37:56.787Z,19.81
2018-04-17T05:40:22.978Z,19.84
2018-04-17T05:42:49.268Z,19.83
2018-04-17T05:45:15.607Z,19.84
2018-04-17T05:47:41.834Z,19.84
2018-04-17T05:50:08.150Z,19.80
2018-04-17T05:52:34.391Z,19.82
2018-04-17T05:55:00.582Z,19.84
2018-04-17T05:57:26.847Z,19.83
2018-04-17T05:59:53.566Z,19.83
2018-04-17T06:02:19.801Z,19.84
2018-04-17T06:04:46.235Z,19.85
2018-04-17T06:07:12.581Z,19.86
2018-04-17T06:09:38.828Z,19.91
2018-04-17T06:12:05.190Z,19.90
2018-04-17T06:14:31.435Z,19.92
2018-04-17T06:16:57.627Z,19.95
2018-04-17T06:19:23.859Z,19.94
2018-04-17T06:21:50.082Z,19.97
2018-04-17T06:24:16.265Z,20.01
2018-04-17T06:26:42.625Z,20.02
2018-04-17T06:29:09.071Z,20.08
2018-04-17T06:31:35.322Z,20.03
2018-04-17T06:34:01.634Z,19.99
2018-04-17T06:36:27.833Z,19.95
2018-04-17T06:38:54.149Z,19.95
2018-04-17T06:41:20.545Z,19.96
2018-04-17T06:43:46.816Z,19.92
2018-04-17T06:46:13.141Z,19.92
2018-04-17T06:48:39.374Z,19.92
2018-04-17T06:51:05.693Z,19.95
2018-04-17T06:53:31.966Z,19.97
2018-04-17T06:55:58.194Z,19.97
2018-04-17T06:58:24.440Z,19.98
2018-04-17T07:00:50.709Z,19.98
2018-04-17T07:03:16.884Z,20.00
2018-04-17T07:05:43.113Z,19.99
2018-04-17T07:08:09.369Z,20.00
2018-04-17T07:10:35.621Z,20.01
2018-04-17T07:13:01.883Z,20.01
2018-04-17T07:15:28.064Z,20.03
2018-04-17T07:17:54.321Z,20.02
2018-04-17T07:20:20.567Z,20.00
2018-04-17T07:22:46.778Z,20.00
2018-04-17T07:25:12.999Z,20.00
2018-04-17T07:27:39.560Z,20.02
2018-04-17T07:30:05.774Z,20.06
2018-04-17T07:32:31.980Z,20.06
2018-04-17T07:34:58.165Z,20.11
2018-04-17T07:37:24.411Z,20.12
2018-04-17T07:39:51.457Z,20.09
2018-04-17T07:42:18.206Z,20.05
2018-04-17T07:44:44.495Z,20.07
2018-04-17T07:47:20.723Z,20.07
2018-04-17T07:49:46.952Z,20.08
2018-04-17T07:52:13.267Z,20.09
2018-04-17T07:54:39.546Z,20.09
2018-04-17T07:57:06.065Z,20.08
2018-04-17T07:59:32.292Z,20.09
2018-04-17T08:01:58.564Z,20.09
2018-04-17T08:04:24.828Z,20.12
2018-04-17T08:06:51.009Z,20.14
2018-04-17T08:09:17.332Z,20.15
2018-04-17T08:11:43.603Z,20.16
2018-04-17T08:14:09.925Z,20.21
2018-04-17T08:16:36.123Z,20.27
2018-04-17T08:19:02.316Z,20.27
2018-04-17T08:21:28.782Z,20.23
2018-04-17T08:23:55.054Z,20.20
2018-04-17T08:26:21.337Z,20.23
2018-04-17T08:28:47.645Z,20.23
2018-04-17T08:31:13.838Z,20.21
2018-04-17T08:33:40.089Z,20.23
2018-04-17T08:36:06.398Z,20.25
2018-04-17T08:38:32.725Z,20.25
2018-04-17T08:40:58.911Z,20.27
2018-04-17T08:43:25.191Z,20.29
2018-04-17T08:45:51.489Z,20.28
2018-04-17T08:48:17.985Z,20.29
2018-04-17T08:50:44.222Z,20.27
2018-04-17T08:53:10.460Z,20.27
2018-04-17T08:55:36.725Z,20.26
2018-04-17T08:58:03.027Z,20.26
2018-04-17T09:00:29.211Z,20.27
2018-04-17T09:02:55.544Z,20.27
2018-04-17T09:05:21.725Z,20.29
2018-04-17T09:07:48.141Z,20.31
2018-04-17T09:10:14.406Z,20.33
2018-04-17T09:12:40.986Z,20.34
2018-04-17T09:15:07.317Z,20.36
2018-04-17T09:17:33.570Z,20.39
2018-04-17T09:19:59.840Z,20.43
2018-04-17T09:22:26.220Z,20.46
2018-04-17T09:24:52.422Z,20.48
2018-04-17T09:27:18.966Z,20.48
2018-04-17T09:29:45.157Z,20.54
2018-04-17T09:32:11.354Z,20.56
2018-04-17T09:34:37.957Z,20.56
2018-04-17T09:37:04.178Z,20.55
2018-04-17T09:39:30.494Z,20.56
2018-04-17T09:41:57.067Z,20.59
2018-04-17T09:44:23.324Z,20.60
2018-04-17T09:46:49.550Z,20.61
2018-04-17T09:49:15.729Z,20.62
2018-04-17T09:51:42.054Z,20.63
2018-04-17T09:54:08.287Z,20.65
2018-04-17T09:56:34.524Z,20.69
2018-04-17T09:59:01.055Z,20.70
2018-04-17T10:01:27.235Z,20.73
2018-04-17T10:03:53.881Z,20.74
2018-04-17T10:06:20.069Z,20.75
2018-04-17T10:08:46.309Z,20.76
2018-04-17T10:11:12.545Z,20.79
2018-04-17T10:13:38.837Z,20.81
2018-04-17T10:16:05.055Z,20.83
2018-04-17T10:18:31.253Z,20.86
2018-04-17T10:20:57.554Z,20.89
2018-04-17T10:23:23.823Z,20.91
2018-04-17T10:25:50.059Z,20.91
2018-04-17T10:28:16.259Z,20.90
2018-04-17T10:30:42.602Z,20.94
2018-04-17T10:33:11.807Z,20.98
2018-04-17T10:35:38.036Z,21.02
2018-04-17T10:38:04.370Z,21.05
2018-04-17T10:40:30.669Z,21.05
2018-04-17T10:42:56.848Z,21.06
2018-04-17T10:45:23.059Z,21.08
2018-04-17T10:47:49.291Z,21.12
2018-04-17T10:50:15.646Z,21.15
2018-04-17T10:52:41.850Z,21.20
2018-04-17T10:55:08.073Z,21.24
2018-04-17T10:57:34.331Z,21.31
2018-04-17T11:00:00.568Z,21.35
2018-04-17T11:02:26.803Z,21.33
2018-04-17T11:04:53.074Z,21.37
2018-04-17T11:07:19.281Z,21.44
2018-04-17T11:09:45.518Z,21.47
2018-04-17T11:12:11.809Z,21.48
2018-04-17T11:14:38.039Z,21.49
2018-04-17T11:17:04.317Z,21.54
2018-04-17T11:19:30.572Z,21.62
2018-04-17T11:21:56.989Z,21.66
2018-04-17T11:24:23.389Z,21.63
2018-04-17T11:26:49.763Z,21.63
2018-04-17T11:29:16.086Z,21.59
2018-04-17T11:31:42.364Z,21.65
2018-04-17T11:34:08.624Z,21.69
2018-04-17T11:36:34.849Z,21.72
2018-04-17T11:39:09.288Z,21.78
2018-04-17T11:41:35.517Z,21.84
2018-04-17T11:44:01.776Z,21.80
2018-04-17T11:46:28.145Z,21.74
2018-04-17T11:48:54.390Z,21.77
2018-04-17T11:51:20.869Z,21.78
2018-04-17T11:53:47.125Z,21.77
2018-04-17T11:56:13.635Z,21.86
2018-04-17T11:58:40.041Z,21.91
2018-04-17T12:01:06.225Z,21.96
2018-04-17T12:03:32.485Z,21.99
2018-04-17T12:05:59.205Z,22.05
2018-04-17T12:08:25.786Z,22.07
2018-04-17T12:10:52.497Z,22.12
2018-04-17T12:13:18.911Z,22.17
2018-04-17T12:15:45.140Z,22.22
2018-04-17T12:18:11.392Z,22.26
2018-04-17T12:20:37.573Z,22.29
2018-04-17T12:23:03.945Z,22.35
2018-04-17T12:25:30.129Z,22.40
2018-04-17T12:27:56.334Z,22.43
2018-04-17T12:30:22.554Z,22.48
2018-04-17T12:32:48.816Z,22.53
2018-04-17T12:35:14.997Z,22.60
2018-04-17T12:37:41.267Z,22.67
2018-04-17T12:40:07.455Z,22.77
2018-04-17T12:42:33.673Z,22.91
2018-04-17T12:44:59.968Z,23.04
2018-04-17T12:47:26.165Z,23.17
2018-04-17T12:49:52.345Z,23.19
2018-04-17T12:52:18.658Z,23.20
2018-04-17T12:54:44.906Z,23.20
2018-04-17T12:57:11.096Z,23.18
2018-04-17T12:59:37.456Z,23.12
2018-04-17T13:02:03.657Z,23.12
2018-04-17T13:04:30.293Z,23.13
2018-04-17T13:06:56.465Z,23.20
2018-04-17T13:09:22.621Z,23.23
2018-04-17T13:11:48.871Z,23.24
2018-04-17T13:14:15.049Z,23.25
2018-04-17T13:16:41.633Z,23.27
2018-04-17T13:19:07.776Z,23.32
2018-04-17T13:21:33.992Z,23.35
2018-04-17T13:24:00.208Z,23.37
2018-04-17T13:26:26.452Z,23.37
2018-04-17T13:28:52.644Z,23.35
2018-04-17T13:31:18.875Z,23.32
2018-04-17T13:33:45.068Z,23.31
2018-04-17T13:36:11.310Z,23.31
2018-04-17T13:38:37.937Z,23.30
2018-04-17T13:41:04.112Z,23.31
2018-04-17T13:43:30.349Z,23.33
2018-04-17T13:45:56.576Z,23.36
2018-04-17T13:48:22.906Z,23.39
2018-04-17T13:50:49.085Z,23.42
2018-04-17T13:53:15.304Z,23.45
2018-04-17T13:55:41.503Z,23.50
2018-04-17T13:58:07.696Z,23.54
2018-04-17T14:00:33.933Z,23.56
2018-04-17T14:03:00.089Z,23.60
2018-04-17T14:05:26.286Z,23.63
2018-04-17T14:07:52.824Z,23.68
2018-04-17T14:10:19.343Z,23.74
2018-04-17T14:12:45.986Z,23.81
2018-04-17T14:15:12.242Z,23.88
2018-04-17T14:17:38.419Z,23.98
2018-04-17T14:20:04.653Z,24.09
2018-04-17T14:22:30.909Z,24.21
2018-04-17T14:24:57.202Z,24.37
2018-04-17T14:27:23.447Z,24.57
2018-04-17T14:29:49.639Z,24.82
2018-04-17T14:32:15.880Z,25.22
2018-04-17T14:34:42.343Z,26.41
2018-04-17T14:37:08.886Z,27.39
2018-04-17T14:39:35.076Z,27.60
2018-04-17T14:42:01.317Z,28.28
2018-04-17T14:44:27.778Z,28.87
2018-04-17T14:46:54.317Z,28.90
2018-04-17T14:49:20.688Z,28.73
2018-04-17T14:51:46.864Z,28.73
2018-04-17T14:54:13.096Z,28.80
2018-04-17T14:56:39.293Z,28.93
2018-04-17T14:59:05.573Z,29.26
2018-04-17T15:01:32.079Z,29.50
2018-04-17T15:03:58.298Z,29.59
2018-04-17T15:06:24.756Z,29.53
2018-04-17T15:08:51.150Z,29.28
2018-04-17T15:11:17.320Z,28.94
2018-04-17T15:13:43.488Z,28.96
2018-04-17T15:16:09.807Z,28.55
2018-04-17T15:18:36.234Z,28.52
2018-04-17T15:21:02.486Z,28.40
2018-04-17T15:23:28.774Z,28.30
2018-04-17T15:25:54.980Z,28.11
2018-04-17T15:28:21.246Z,27.81
2018-04-17T15:30:47.470Z,27.58
2018-04-17T15:33:13.699Z,27.01
2018-04-17T15:35:40.217Z,26.93
2018-04-17T15:38:06.727Z,26.14
2018-04-17T15:40:32.996Z,25.72
2018-04-17T15:42:59.156Z,25.51
2018-04-17T15:45:25.313Z,25.28
2018-04-17T15:47:51.539Z,25.00
2018-04-17T15:50:17.741Z,24.75
2018-04-17T15:52:44.434Z,24.61
2018-04-17T15:55:11.044Z,24.53
2018-04-17T15:57:37.216Z,24.40
2018-04-17T16:00:03.709Z,24.49
2018-04-17T16:02:30.142Z,24.58
2018-04-17T16:04:56.503Z,24.70
2018-04-17T16:07:22.754Z,24.87
2018-04-17T16:09:49.346Z,25.24
2018-04-17T16:12:15.581Z,25.48
2018-04-17T16:14:41.749Z,25.72
2018-04-17T16:17:08.068Z,26.14
2018-04-17T16:19:34.344Z,26.13
2018-04-17T16:22:00.989Z,25.73
2018-04-17T16:24:27.264Z,25.45
2018-04-17T16:26:53.524Z,25.22
2018-04-17T16:29:19.776Z,25.11
2018-04-17T16:31:45.952Z,25.03
2018-04-17T16:34:12.375Z,24.86
2018-04-17T16:36:38.657Z,24.80
2018-04-17T16:39:05.190Z,24.73
2018-04-17T16:41:32.445Z,24.68
2018-04-17T16:43:58.771Z,24.66
2018-04-17T16:46:27.028Z,24.60
2018-04-17T16:48:53.201Z,24.52
2018-04-17T16:51:19.495Z,24.44
2018-04-17T16:53:45.674Z,24.31
2018-04-17T16:56:11.909Z,24.21
2018-04-17T16:58:38.304Z,24.13
2018-04-17T17:01:04.504Z,24.05
2018-04-17T17:03:31.080Z,23.99
2018-04-17T17:05:57.335Z,23.92
2018-04-17T17:08:23.559Z,23.89
2018-04-17T17:10:50.585Z,23.83
2018-04-17T17:13:16.835Z,23.78
2018-04-17T17:15:43.068Z,23.69
2018-04-17T17:18:09.787Z,23.63
2018-04-17T17:20:36.062Z,23.56
2018-04-17T17:23:02.327Z,23.50
2018-04-17T17:25:28.624Z,23.45
2018-04-17T17:27:57.071Z,23.39
2018-04-17T17:30:23.669Z,23.36
2018-04-17T17:32:49.828Z,23.33
2018-04-17T17:35:16.178Z,23.31
2018-04-17T17:37:42.434Z,23.29
2018-04-17T17:40:08.578Z,23.27
2018-04-17T17:42:34.791Z,23.25
2018-04-17T17:45:01.063Z,23.23
2018-04-17T17:47:27.503Z,23.20
2018-04-17T17:49:53.765Z,23.18
2018-04-17T17:52:26.951Z,23.15
2018-04-17T17:54:53.257Z,23.11
2018-04-17T17:57:19.753Z,23.06
2018-04-17T17:59:45.994Z,23.05
2018-04-17T18:02:12.202Z,23.03
2018-04-17T18:04:38.756Z,23.02
2018-04-17T18:07:04.987Z,23.01
2018-04-17T18:09:31.182Z,23.00
2018-04-17T18:11:58.224Z,22.97
2018-04-17T18:14:24.499Z,22.94
2018-04-17T18:16:50.678Z,22.92
2018-04-17T18:19:16.913Z,22.89
2018-04-17T18:21:43.189Z,22.85
2018-04-17T18:24:09.402Z,22.83
2018-04-17T18:26:35.618Z,22.80
2018-04-17T18:29:01.992Z,22.78
2018-04-17T18:31:28.456Z,22.75
2018-04-17T18:33:54.686Z,22.73
2018-04-17T18:36:20.991Z,22.70
2018-04-17T18:38:47.228Z,22.67
2018-04-17T18:41:13.776Z,22.65
2018-04-17T18:43:40.001Z,22.63
2018-04-17T18:46:06.695Z,22.62
2018-04-17T18:48:32.891Z,22.60
2018-04-17T18:50:59.252Z,22.57
2018-04-17T18:53:25.655Z,22.55
2018-04-17T18:55:51.885Z,22.52
2018-04-17T18:58:18.170Z,22.52
2018-04-17T19:00:44.418Z,22.52
2018-04-17T19:03:10.777Z,22.53
2018-04-17T19:05:36.945Z,22.51
2018-04-17T19:08:03.087Z,22.50
2018-04-17T19:10:29.574Z,22.48
2018-04-17T19:12:55.737Z,22.46
2018-04-17T19:15:21.940Z,22.46
2018-04-17T19:17:48.150Z,22.43
2018-04-17T19:20:14.693Z,22.43
2018-04-17T19:22:41.093Z,22.41
2018-04-17T19:25:07.347Z,22.40
2018-04-17T19:27:33.667Z,22.38
2018-04-17T19:29:59.889Z,22.36
2018-04-17T19:32:26.151Z,22.35
2018-04-17T19:34:52.410Z,22.33
2018-04-17T19:37:18.675Z,22.31
2018-04-17T19:39:45.082Z,22.28
2018-04-17T19:42:11.319Z,22.25
2018-04-17T19:44:37.573Z,22.27
2018-04-17T19:47:04.230Z,22.25
2018-04-17T19:49:31.024Z,22.26
2018-04-17T19:51:57.215Z,22.25
2018-04-17T19:54:23.510Z,22.24
2018-04-17T19:56:49.825Z,22.22
2018-04-17T19:59:15.996Z,22.21
2018-04-17T20:01:42.181Z,22.21
2018-04-17T20:04:08.452Z,22.19
2018-04-17T20:06:35.370Z,22.18
2018-04-17T20:09:02.093Z,22.17
2018-04-17T20:11:29.375Z,22.16
2018-04-17T20:13:56.330Z,22.15
2018-04-17T20:16:22.521Z,22.14
2018-04-17T20:18:48.794Z,22.14
2018-04-17T20:21:14.982Z,22.14
2018-04-17T20:23:41.393Z,22.11
2018-04-17T20:26:08.259Z,22.12
2018-04-17T20:28:36.349Z,22.12
2018-04-17T20:31:02.728Z,22.12
2018-04-17T20:33:29.243Z,22.12
2018-04-17T20:35:56.463Z,22.11
2018-04-17T20:38:22.703Z,22.11
2018-04-17T20:40:49.022Z,22.10
2018-04-17T20:43:15.583Z,22.10
2018-04-17T20:45:41.756Z,22.12
2018-04-17T20:48:08.006Z,22.09
2018-04-17T20:50:34.311Z,22.16
2018-04-17T20:53:01.161Z,22.18
2018-04-17T20:55:27.385Z,22.18
2018-04-17T20:57:53.622Z,22.15
2018-04-17T21:00:19.980Z,22.13
2018-04-17T21:02:46.440Z,22.10
2018-04-17T21:05:12.766Z,22.09
2018-04-17T21:07:39.298Z,22.07
2018-04-17T21:10:05.535Z,22.06
2018-04-17T21:12:31.745Z,22.06
2018-04-17T21:14:58.054Z,22.04
2018-04-17T21:17:24.472Z,22.02
2018-04-17T21:19:50.795Z,22.02
2018-04-17T21:22:17.243Z,21.99
2018-04-17T21:24:43.988Z,21.98
2018-04-17T21:27:10.201Z,21.97
2018-04-17T21:29:36.463Z,21.97
2018-04-17T21:32:02.909Z,21.96
2018-04-17T21:34:29.564Z,21.95
2018-04-17T21:36:55.975Z,21.94
2018-04-17T21:39:22.331Z,21.93
2018-04-17T21:41:48.708Z,21.90
2018-04-17T21:44:15.101Z,21.91
2018-04-17T21:46:41.277Z,21.90
2018-04-17T21:49:07.699Z,21.88
2018-04-17T21:51:33.894Z,21.86
2018-04-17T21:54:00.068Z,21.84
2018-04-17T21:56:26.414Z,21.82
2018-04-17T21:58:52.931Z,21.80
2018-04-17T22:01:20.041Z,21.82
2018-04-17T22:03:46.362Z,21.83
2018-04-17T22:06:12.881Z,21.85
2018-04-17T22:08:39.053Z,21.85
2018-04-17T22:11:05.281Z,21.85
2018-04-17T22:13:32.040Z,21.86
2018-04-17T22:15:58.272Z,21.84
2018-04-17T22:18:24.563Z,21.84
2018-04-17T22:20:52.093Z,21.82
2018-04-17T22:23:18.391Z,21.80
2018-04-17T22:25:45.329Z,21.77
2018-04-17T22:28:11.689Z,21.80
2018-04-17T22:30:38.055Z,21.81
2018-04-17T22:33:04.290Z,21.85
2018-04-17T22:35:30.457Z,21.84
2018-04-17T22:37:56.766Z,21.85
2018-04-17T22:40:23.042Z,21.87
2018-04-17T22:42:49.628Z,21.86
2018-04-17T22:45:15.924Z,21.86
2018-04-17T22:47:42.153Z,21.83
2018-04-17T22:50:08.541Z,21.81
2018-04-17T22:52:34.834Z,21.79
2018-04-17T22:55:01.093Z,21.78
2018-04-17T22:57:27.621Z,21.77
2018-04-17T22:59:54.413Z,21.78
2018-04-17T23:02:20.646Z,21.77
2018-04-17T23:04:47.549Z,21.75
2018-04-17T23:07:13.996Z,21.74
2018-04-17T23:09:40.204Z,21.74
2018-04-17T23:12:06.790Z,21.75
2018-04-17T23:14:33.709Z,21.79
2018-04-17T23:17:00.322Z,21.80
2018-04-17T23:19:26.526Z,21.83
2018-04-17T23:21:52.736Z,21.85
2018-04-17T23:24:18.922Z,21.82
2018-04-17T23:26:45.131Z,21.74
2018-04-17T23:29:11.302Z,21.68
2018-04-17T23:31:37.857Z,21.64
2018-04-17T23:34:04.126Z,21.62
2018-04-17T23:36:30.298Z,21.59
2018-04-17T23:38:56.499Z,21.58
2018-04-17T23:41:22.669Z,21.56
2018-04-17T23:46:21.818Z,21.54
2018-04-17T23:48:47.984Z,21.54
2018-04-17T23:51:14.553Z,21.53
2018-04-17T23:53:40.953Z,21.52
2018-04-17T23:56:07.129Z,21.52
2018-04-17T23:58:33.366Z,21.50
